CheckWX is a tool to help pilots better visualize weather data.  It is not intended as a substitute for an official pre-flight weather briefing.

20:16:27 UTC

KNQI METAR
Kingsville Nas Airport
Kingsville, Texas, USA
Current

20 mins ago

KNQI 231956Z 14019G25KT 10SM -RA SCT026 BKN034 OVC080 27/19 A2992 RMK AO2 PK WND 15027/1939 RAB06 SLP127 P0000 T02720194 $
Observed
Apr-23 @ 19:56 UTC
Wind
  • 140° at 19 KTS
  • Gusting to 25 KTS
Visibility
10 SM
Flight Rules
VFR
Conditions
Light Rain
Cloud Levels
  • Scattered at 2,600' AGL
  • Broken at 3,400' AGL
  • Overcast at 8,000' AGL
Temperature
27°C / 81°F
Dewpoint
19°C / 66°F
Heat Index
28°C / 83°F
Humidity
62%
Altimeter
29.92" Hg
Pressure
1013.22 hPa
Current Rain
0.01"
Previous

46 mins ago

KNQI 231930Z 14019G26KT 10SM -RA BKN024 BKN034 OVC090 27/20 A2993 RMK AO2 PK WND 14027/1918 RAB06 P0000 T02670200 $
Observed
Apr-23 @ 19:30 UTC
Wind
  • 140° at 19 KTS
  • Gusting to 26 KTS
Visibility
10 SM
Flight Rules
MVFR
Conditions
Light Rain
Cloud Levels
  • Broken at 2,400' AGL
  • Broken at 3,400' AGL
  • Overcast at 9,000' AGL
Temperature
27°C / 81°F
Dewpoint
20°C / 68°F
Heat Index
29°C / 84°F
Humidity
66%
Altimeter
29.93" Hg
Pressure
1013.52 hPa
Current Rain
0.01"
Previous

1 hour ago

KNQI 231910Z 14020G27KT 10SM -RA SCT024 BKN030 BKN039 OVC200 27/20 A2993 RMK AO2 PK WND 13027/1910 RAB06 P0000 T02720200 $
Observed
Apr-23 @ 19:10 UTC
Wind
  • 140° at 20 KTS
  • Gusting to 27 KTS
Visibility
10 SM
Flight Rules
MVFR
Conditions
Light Rain
Cloud Levels
  • Scattered at 2,400' AGL
  • Broken at 3,000' AGL
  • Broken at 3,900' AGL
  • Overcast at 20,000' AGL
Temperature
27°C / 81°F
Dewpoint
20°C / 68°F
Heat Index
29°C / 84°F
Humidity
66%
Altimeter
29.93" Hg
Pressure
1013.52 hPa
Current Rain
0.01"